KLM422 EHAM-LIRF
Flight info
| Callsign | KLM422 |
|---|---|
| Flight time | 1h 47m |
| Altitude | 35000 |
| Route | EDUPO Z739 MISGO DCT ASBON DCT TUSUK DCT ULNOK L607 ABUKA DCT TEDGO DCT BATUB DCT TIRUL M738 NATAG DCT LORLO DCT GAVRA DCT RITEB |
| Aircraft | B738/M-SDE2E3FGHIRWXY/LB1 |
Departure
| Time | 2026-05-03 20:32 |
|---|---|
| Airport | Amsterdam Airport Schiphol (EHAM) |
Arrival
| Time | 2026-05-03 22:19 |
|---|---|
| Airport | Rome–Fiumicino Leonardo da Vinci International Airport (LIRF) |
| Time | Latitude | Longitude | Altitude | Speed | Heading |
|---|---|---|---|---|---|
| 2026-05-03 20:15 | 52.30710 | 4.77155 | -2 ft | 0 kts | 3° |
| 2026-05-03 20:19 | 52.30696 | 4.77155 | -2 ft | 4 kts | 20° |
| 2026-05-03 20:19 | 52.30674 | 4.77143 | -2 ft | 4 kts | 335° |
| 2026-05-03 20:20 | 52.30660 | 4.77164 | -2 ft | 4 kts | 300° |
| 2026-05-03 20:20 | 52.30655 | 4.77176 | -2 ft | 1 kts | 302° |
| 2026-05-03 20:24 | 52.30657 | 4.77165 | -2 ft | 1 kts | 280° |
| 2026-05-03 20:24 | 52.30655 | 4.77144 | -2 ft | 1 kts | 262° |
| 2026-05-03 20:24 | 52.30650 | 4.77095 | -2 ft | 7 kts | 255° |
| 2026-05-03 20:24 | 52.30637 | 4.77057 | -2 ft | 3 kts | 230° |
| 2026-05-03 20:25 | 52.30616 | 4.77040 | -2 ft | 3 kts | 190° |
| 2026-05-03 20:25 | 52.30580 | 4.77055 | -2 ft | 7 kts | 149° |
| 2026-05-03 20:25 | 52.30543 | 4.77129 | -2 ft | 11 kts | 101° |
| 2026-05-03 20:25 | 52.30582 | 4.77268 | -2 ft | 16 kts | 58° |
| 2026-05-03 20:26 | 52.30639 | 4.77426 | -2 ft | 11 kts | 78° |
| 2026-05-03 20:26 | 52.30641 | 4.77454 | -2 ft | 0 kts | 83° |
| 2026-05-03 20:26 | 52.30639 | 4.77469 | -2 ft | 4 kts | 106° |
| 2026-05-03 20:26 | 52.30597 | 4.77518 | -2 ft | 11 kts | 151° |
| 2026-05-03 20:27 | 52.30563 | 4.77548 | -2 ft | 0 kts | 153° |
| 2026-05-03 20:28 | 52.30561 | 4.77549 | -2 ft | 1 kts | 153° |
| 2026-05-03 20:28 | 52.30539 | 4.77567 | -2 ft | 5 kts | 153° |
| 2026-05-03 20:28 | 52.30515 | 4.77587 | -2 ft | 0 kts | 152° |
| 2026-05-03 20:29 | 52.30510 | 4.77592 | -2 ft | 2 kts | 152° |
| 2026-05-03 20:30 | 52.30480 | 4.77617 | -2 ft | 7 kts | 152° |
| 2026-05-03 20:30 | 52.30421 | 4.77635 | -2 ft | 7 kts | 202° |
| 2026-05-03 20:30 | 52.30383 | 4.77556 | -3 ft | 6 kts | 236° |
| 2026-05-03 20:30 | 52.30375 | 4.77535 | -3 ft | 2 kts | 237° |
| 2026-05-03 20:31 | 52.30335 | 4.77432 | -3 ft | 35 kts | 238° |
| 2026-05-03 20:31 | 52.30073 | 4.76750 | -3 ft | 105 kts | 238° |
| 2026-05-03 20:31 | 52.29581 | 4.75463 | 0 ft | 154 kts | 241° |
| 2026-05-03 20:31 | 52.29062 | 4.73905 | 148 ft | 158 kts | 247° |
| 2026-05-03 20:32 | 52.28514 | 4.72329 | 398 ft | 160 kts | 241° |
| 2026-05-03 20:32 | 52.27862 | 4.70916 | 452 ft | 171 kts | 230° |
| 2026-05-03 20:32 | 52.27149 | 4.69357 | 1618 ft | 160 kts | 232° |
| 2026-05-03 20:32 | 52.26327 | 4.68202 | 2780 ft | 164 kts | 209° |
| 2026-05-03 20:33 | 52.25127 | 4.67699 | 3144 ft | 197 kts | 183° |
| 2026-05-03 20:33 | 52.23728 | 4.68269 | 3340 ft | 225 kts | 150° |
| 2026-05-03 20:33 | 52.22675 | 4.70233 | 3810 ft | 240 kts | 116° |
| 2026-05-03 20:33 | 52.22022 | 4.72751 | 4466 ft | 244 kts | 117° |
| 2026-05-03 20:34 | 52.21278 | 4.75222 | 5269 ft | 242 kts | 120° |
| 2026-05-03 20:34 | 52.20482 | 4.77667 | 5935 ft | 249 kts | 122° |
| 2026-05-03 20:34 | 52.19576 | 4.80214 | 6208 ft | 272 kts | 123° |
| 2026-05-03 20:34 | 52.18598 | 4.82916 | 6775 ft | 281 kts | 123° |
| 2026-05-03 20:35 | 52.17678 | 4.85737 | 7494 ft | 285 kts | 111° |
| 2026-05-03 20:35 | 52.17515 | 4.88975 | 8214 ft | 292 kts | 81° |
| 2026-05-03 20:35 | 52.18025 | 4.92184 | 8942 ft | 296 kts | 74° |
| 2026-05-03 20:35 | 52.18654 | 4.95426 | 9587 ft | 303 kts | 73° |
| 2026-05-03 20:36 | 52.19304 | 4.98708 | 10233 ft | 308 kts | 73° |
| 2026-05-03 20:36 | 52.19978 | 5.02153 | 10431 ft | 330 kts | 73° |
| 2026-05-03 20:36 | 52.20687 | 5.05835 | 10601 ft | 351 kts | 73° |
| 2026-05-03 20:36 | 52.21429 | 5.09742 | 10749 ft | 371 kts | 73° |
| 2026-05-03 20:37 | 52.22205 | 5.13867 | 10965 ft | 388 kts | 73° |
| 2026-05-03 20:37 | 52.22991 | 5.18069 | 11408 ft | 395 kts | 74° |
| 2026-05-03 20:37 | 52.23640 | 5.22420 | 11986 ft | 398 kts | 86° |
| 2026-05-03 20:37 | 52.23368 | 5.26882 | 12623 ft | 396 kts | 108° |
| 2026-05-03 20:38 | 52.22252 | 5.30952 | 13283 ft | 393 kts | 126° |
| 2026-05-03 20:38 | 52.20673 | 5.34608 | 13911 ft | 396 kts | 129° |
| 2026-05-03 20:38 | 52.19039 | 5.38244 | 14470 ft | 400 kts | 129° |
| 2026-05-03 20:38 | 52.17389 | 5.41927 | 15067 ft | 404 kts | 129° |
| 2026-05-03 20:39 | 52.15738 | 5.45655 | 15626 ft | 409 kts | 128° |
| 2026-05-03 20:39 | 52.14078 | 5.49445 | 16181 ft | 413 kts | 128° |
| 2026-05-03 20:39 | 52.12405 | 5.53276 | 16753 ft | 417 kts | 128° |
| 2026-05-03 20:39 | 52.10716 | 5.57142 | 17327 ft | 421 kts | 128° |
| 2026-05-03 20:40 | 52.09013 | 5.61032 | 17885 ft | 425 kts | 128° |
| 2026-05-03 20:40 | 52.07292 | 5.64952 | 18423 ft | 429 kts | 129° |
| 2026-05-03 20:40 | 52.05531 | 5.68879 | 18931 ft | 430 kts | 131° |
| 2026-05-03 20:40 | 52.03605 | 5.72596 | 19458 ft | 431 kts | 135° |
| 2026-05-03 20:41 | 52.01596 | 5.76227 | 19962 ft | 433 kts | 135° |
| 2026-05-03 20:41 | 52.00263 | 5.78647 | 20287 ft | 435 kts | 135° |
| 2026-05-03 20:41 | 51.98261 | 5.82341 | 20770 ft | 438 kts | 135° |
| 2026-05-03 20:41 | 51.96260 | 5.86077 | 21245 ft | 440 kts | 134° |
| 2026-05-03 20:42 | 51.94244 | 5.89839 | 21721 ft | 443 kts | 135° |
| 2026-05-03 20:42 | 51.92225 | 5.93600 | 22196 ft | 445 kts | 135° |
| 2026-05-03 20:42 | 51.90186 | 5.97391 | 22641 ft | 447 kts | 135° |
| 2026-05-03 20:42 | 51.88138 | 6.01195 | 23064 ft | 450 kts | 135° |
| 2026-05-03 20:43 | 51.86075 | 6.05016 | 23506 ft | 452 kts | 135° |
| 2026-05-03 20:43 | 51.83995 | 6.08850 | 23861 ft | 454 kts | 135° |
| 2026-05-03 20:43 | 51.81901 | 6.12683 | 24223 ft | 456 kts | 136° |
| 2026-05-03 20:43 | 51.79796 | 6.16528 | 24580 ft | 458 kts | 136° |
| 2026-05-03 20:44 | 51.77685 | 6.20379 | 24926 ft | 459 kts | 136° |
| 2026-05-03 20:44 | 51.75564 | 6.24248 | 25265 ft | 461 kts | 136° |
| 2026-05-03 20:44 | 51.73439 | 6.28128 | 25592 ft | 463 kts | 136° |
| 2026-05-03 20:44 | 51.71301 | 6.32029 | 25904 ft | 464 kts | 136° |
| 2026-05-03 20:45 | 51.69165 | 6.35924 | 26290 ft | 464 kts | 136° |
| 2026-05-03 20:45 | 51.67019 | 6.39833 | 26577 ft | 466 kts | 136° |
| 2026-05-03 20:45 | 51.64863 | 6.43749 | 26844 ft | 469 kts | 136° |
| 2026-05-03 20:45 | 51.62692 | 6.47683 | 27100 ft | 471 kts | 136° |
| 2026-05-03 20:46 | 51.60513 | 6.51625 | 27385 ft | 473 kts | 136° |
| 2026-05-03 20:46 | 51.58328 | 6.55576 | 27716 ft | 473 kts | 136° |
| 2026-05-03 20:46 | 51.56142 | 6.59522 | 28135 ft | 472 kts | 136° |
| 2026-05-03 20:46 | 51.53968 | 6.63445 | 28579 ft | 470 kts | 136° |
| 2026-05-03 20:47 | 51.51880 | 6.67205 | 28979 ft | 469 kts | 136° |
| 2026-05-03 20:47 | 51.49707 | 6.71111 | 29338 ft | 469 kts | 137° |
| 2026-05-03 20:47 | 51.47540 | 6.75001 | 29717 ft | 467 kts | 137° |
| 2026-05-03 20:47 | 51.45379 | 6.78878 | 30185 ft | 464 kts | 137° |
| 2026-05-03 20:48 | 51.43228 | 6.82728 | 30556 ft | 462 kts | 137° |
| 2026-05-03 20:48 | 51.41047 | 6.86491 | 30855 ft | 459 kts | 141° |
| 2026-05-03 20:48 | 51.38602 | 6.89724 | 31125 ft | 452 kts | 152° |
| 2026-05-03 20:48 | 51.35958 | 6.92388 | 31452 ft | 449 kts | 153° |
| 2026-05-03 20:49 | 51.33256 | 6.95038 | 31704 ft | 450 kts | 153° |
| 2026-05-03 20:49 | 51.30624 | 6.97619 | 32004 ft | 450 kts | 153° |
| 2026-05-03 20:49 | 51.27970 | 7.00239 | 32354 ft | 448 kts | 153° |
| 2026-05-03 20:49 | 51.25332 | 7.02860 | 32721 ft | 446 kts | 153° |
| 2026-05-03 20:50 | 51.22706 | 7.05479 | 33041 ft | 445 kts | 153° |
| 2026-05-03 20:50 | 51.20084 | 7.08098 | 33332 ft | 445 kts | 153° |
| 2026-05-03 20:50 | 51.17461 | 7.10719 | 33626 ft | 444 kts | 153° |
| 2026-05-03 20:50 | 51.14841 | 7.13335 | 33906 ft | 443 kts | 153° |
| 2026-05-03 20:51 | 51.12244 | 7.15925 | 34262 ft | 440 kts | 153° |
| 2026-05-03 20:51 | 51.09649 | 7.18509 | 34439 ft | 442 kts | 152° |
| 2026-05-03 20:51 | 51.07031 | 7.21108 | 34534 ft | 445 kts | 152° |
| 2026-05-03 20:51 | 51.04405 | 7.23712 | 34734 ft | 445 kts | 152° |
| 2026-05-03 20:52 | 51.01778 | 7.26316 | 34980 ft | 444 kts | 152° |
| 2026-05-03 20:52 | 50.96510 | 7.31525 | 34989 ft | 447 kts | 152° |
| 2026-05-03 20:53 | 50.91259 | 7.36708 | 34993 ft | 443 kts | 152° |
| 2026-05-03 20:53 | 50.86037 | 7.41846 | 34992 ft | 441 kts | 153° |
| 2026-05-03 20:54 | 50.80839 | 7.46946 | 34994 ft | 439 kts | 153° |
| 2026-05-03 20:54 | 50.73049 | 7.54565 | 34985 ft | 438 kts | 153° |
| 2026-05-03 20:55 | 50.67915 | 7.59751 | 34991 ft | 439 kts | 151° |
| 2026-05-03 20:55 | 50.62818 | 7.65076 | 34995 ft | 439 kts | 151° |
| 2026-05-03 20:56 | 50.57712 | 7.70388 | 34993 ft | 440 kts | 151° |
| 2026-05-03 20:56 | 50.52601 | 7.75664 | 34998 ft | 443 kts | 151° |
| 2026-05-03 20:57 | 50.47474 | 7.80932 | 35002 ft | 445 kts | 151° |
| 2026-05-03 20:57 | 50.42282 | 7.86251 | 35001 ft | 447 kts | 151° |
| 2026-05-03 20:58 | 50.37072 | 7.91577 | 34976 ft | 447 kts | 151° |
| 2026-05-03 20:58 | 50.31873 | 7.96878 | 34990 ft | 446 kts | 151° |
| 2026-05-03 20:59 | 50.26675 | 8.02163 | 34989 ft | 445 kts | 151° |
| 2026-05-03 20:59 | 50.21482 | 8.07430 | 34990 ft | 445 kts | 151° |
| 2026-05-03 21:00 | 50.17172 | 8.11792 | 34994 ft | 444 kts | 152° |
| 2026-05-03 21:00 | 50.11097 | 8.17839 | 34985 ft | 442 kts | 153° |
| 2026-05-03 21:01 | 50.05803 | 8.22704 | 35002 ft | 441 kts | 154° |
| 2026-05-03 21:01 | 50.00510 | 8.27535 | 34982 ft | 441 kts | 153° |
| 2026-05-03 21:02 | 49.95237 | 8.32390 | 34988 ft | 440 kts | 153° |
| 2026-05-03 21:02 | 49.89977 | 8.37237 | 34993 ft | 440 kts | 153° |
| 2026-05-03 21:03 | 49.84762 | 8.42184 | 34985 ft | 442 kts | 148° |
| 2026-05-03 21:03 | 49.80200 | 8.48626 | 34994 ft | 446 kts | 140° |
| 2026-05-03 21:04 | 49.75710 | 8.55259 | 35005 ft | 446 kts | 141° |
| 2026-05-03 21:04 | 49.73318 | 8.58269 | 34997 ft | 441 kts | 152° |
| 2026-05-03 21:04 | 49.70647 | 8.60503 | 35017 ft | 435 kts | 160° |
| 2026-05-03 21:05 | 49.64883 | 8.62968 | 35022 ft | 429 kts | 173° |
| 2026-05-03 21:05 | 49.58995 | 8.64480 | 35016 ft | 430 kts | 173° |
| 2026-05-03 21:06 | 49.53091 | 8.66074 | 35024 ft | 432 kts | 173° |
| 2026-05-03 21:06 | 49.47172 | 8.67792 | 35019 ft | 435 kts | 169° |
| 2026-05-03 21:07 | 49.41510 | 8.71219 | 35017 ft | 441 kts | 159° |
| 2026-05-03 21:07 | 49.35972 | 8.75159 | 35020 ft | 442 kts | 159° |
| 2026-05-03 21:08 | 49.30380 | 8.79090 | 35014 ft | 442 kts | 160° |
| 2026-05-03 21:08 | 49.24773 | 8.82982 | 35008 ft | 442 kts | 160° |
| 2026-05-03 21:09 | 49.19168 | 8.86850 | 35016 ft | 442 kts | 160° |
| 2026-05-03 21:09 | 49.13564 | 8.90706 | 35008 ft | 442 kts | 160° |
| 2026-05-03 21:10 | 49.07947 | 8.94562 | 35011 ft | 443 kts | 160° |
| 2026-05-03 21:10 | 49.02319 | 8.98417 | 35015 ft | 444 kts | 160° |
| 2026-05-03 21:11 | 48.96675 | 9.02274 | 35021 ft | 445 kts | 160° |
| 2026-05-03 21:11 | 48.91028 | 9.06124 | 35006 ft | 445 kts | 160° |
| 2026-05-03 21:12 | 48.85369 | 9.09971 | 35025 ft | 446 kts | 160° |
| 2026-05-03 21:12 | 48.79698 | 9.13818 | 35022 ft | 447 kts | 160° |
| 2026-05-03 21:13 | 48.74014 | 9.17665 | 35027 ft | 447 kts | 160° |
| 2026-05-03 21:13 | 48.68359 | 9.21483 | 35010 ft | 448 kts | 159° |
| 2026-05-03 21:14 | 48.62669 | 9.25314 | 35026 ft | 448 kts | 159° |
| 2026-05-03 21:14 | 48.56860 | 9.28673 | 35024 ft | 446 kts | 165° |
| 2026-05-03 21:15 | 48.50957 | 9.31585 | 35026 ft | 447 kts | 165° |
| 2026-05-03 21:15 | 48.45049 | 9.34517 | 35023 ft | 448 kts | 165° |
| 2026-05-03 21:16 | 48.39150 | 9.37510 | 35029 ft | 448 kts | 165° |
| 2026-05-03 21:16 | 48.33250 | 9.40523 | 35038 ft | 447 kts | 165° |
| 2026-05-03 21:17 | 48.28321 | 9.43035 | 35038 ft | 447 kts | 165° |
| 2026-05-03 21:17 | 48.21479 | 9.46511 | 35033 ft | 446 kts | 164° |
| 2026-05-03 21:18 | 48.15597 | 9.49489 | 35045 ft | 446 kts | 164° |
| 2026-05-03 21:18 | 48.09717 | 9.52460 | 35048 ft | 446 kts | 164° |
| 2026-05-03 21:19 | 48.03828 | 9.55438 | 35044 ft | 447 kts | 163° |
| 2026-05-03 21:19 | 47.98313 | 9.59850 | 35063 ft | 454 kts | 148° |
| 2026-05-03 21:20 | 47.93129 | 9.65250 | 35059 ft | 455 kts | 148° |
| 2026-05-03 21:20 | 47.87951 | 9.70626 | 35048 ft | 457 kts | 148° |
| 2026-05-03 21:21 | 47.82716 | 9.75985 | 35041 ft | 457 kts | 148° |
| 2026-05-03 21:21 | 47.77465 | 9.81319 | 35045 ft | 457 kts | 148° |
| 2026-05-03 21:22 | 47.72212 | 9.86637 | 35048 ft | 458 kts | 148° |
| 2026-05-03 21:22 | 47.66944 | 9.91959 | 35049 ft | 458 kts | 148° |
| 2026-05-03 21:23 | 47.61670 | 9.97275 | 35053 ft | 459 kts | 148° |
| 2026-05-03 21:23 | 47.56392 | 10.02582 | 35048 ft | 459 kts | 149° |
| 2026-05-03 21:24 | 47.51112 | 10.07878 | 35061 ft | 459 kts | 148° |
| 2026-05-03 21:24 | 47.45832 | 10.13161 | 35069 ft | 458 kts | 149° |
| 2026-05-03 21:25 | 47.40551 | 10.18431 | 35064 ft | 459 kts | 149° |
| 2026-05-03 21:25 | 47.35271 | 10.23688 | 35074 ft | 458 kts | 149° |
| 2026-05-03 21:26 | 47.30085 | 10.28839 | 35088 ft | 457 kts | 149° |
| 2026-05-03 21:26 | 47.24806 | 10.34070 | 35083 ft | 458 kts | 149° |
| 2026-05-03 21:27 | 47.19528 | 10.39287 | 35073 ft | 457 kts | 149° |
| 2026-05-03 21:27 | 47.15147 | 10.43609 | 35105 ft | 457 kts | 149° |
| 2026-05-03 21:28 | 47.09860 | 10.48813 | 35075 ft | 457 kts | 149° |
| 2026-05-03 21:28 | 47.04413 | 10.53540 | 35104 ft | 454 kts | 161° |
| 2026-05-03 21:29 | 46.98419 | 10.56305 | 35127 ft | 453 kts | 167° |
| 2026-05-03 21:29 | 46.92372 | 10.58932 | 35132 ft | 454 kts | 166° |
| 2026-05-03 21:30 | 46.86331 | 10.61653 | 35130 ft | 455 kts | 166° |
| 2026-05-03 21:30 | 46.80278 | 10.64377 | 35154 ft | 455 kts | 166° |
| 2026-05-03 21:31 | 46.74227 | 10.67083 | 35162 ft | 455 kts | 166° |
| 2026-05-03 21:31 | 46.68166 | 10.69704 | 35167 ft | 455 kts | 167° |
| 2026-05-03 21:32 | 46.62075 | 10.72174 | 35170 ft | 454 kts | 168° |
| 2026-05-03 21:32 | 46.55981 | 10.74628 | 35192 ft | 453 kts | 168° |
| 2026-05-03 21:33 | 46.49912 | 10.77086 | 35200 ft | 453 kts | 167° |
| 2026-05-03 21:33 | 46.43834 | 10.79554 | 35192 ft | 454 kts | 168° |
| 2026-05-03 21:34 | 46.37807 | 10.81998 | 35209 ft | 454 kts | 168° |
| 2026-05-03 21:34 | 46.31719 | 10.84462 | 35237 ft | 455 kts | 168° |
| 2026-05-03 21:35 | 46.25622 | 10.86923 | 35230 ft | 455 kts | 167° |
| 2026-05-03 21:35 | 46.19513 | 10.89383 | 35228 ft | 457 kts | 167° |
| 2026-05-03 21:36 | 46.13388 | 10.91844 | 35226 ft | 457 kts | 167° |
| 2026-05-03 21:36 | 46.07266 | 10.94299 | 35227 ft | 457 kts | 167° |
| 2026-05-03 21:37 | 46.01138 | 10.96749 | 35201 ft | 457 kts | 168° |
| 2026-05-03 21:37 | 45.95005 | 10.99196 | 35173 ft | 458 kts | 168° |
| 2026-05-03 21:38 | 45.88867 | 11.01640 | 35172 ft | 458 kts | 168° |
| 2026-05-03 21:38 | 45.82718 | 11.04082 | 35152 ft | 459 kts | 168° |
| 2026-05-03 21:39 | 45.76564 | 11.06521 | 35130 ft | 460 kts | 168° |
| 2026-05-03 21:39 | 45.70394 | 11.08960 | 35111 ft | 461 kts | 168° |
| 2026-05-03 21:40 | 45.64214 | 11.11398 | 35099 ft | 460 kts | 168° |
| 2026-05-03 21:40 | 45.58050 | 11.13825 | 35085 ft | 460 kts | 168° |
| 2026-05-03 21:41 | 45.51878 | 11.16248 | 35089 ft | 460 kts | 168° |
| 2026-05-03 21:41 | 45.45712 | 11.18663 | 35084 ft | 461 kts | 168° |
| 2026-05-03 21:42 | 45.39528 | 11.21080 | 35073 ft | 462 kts | 168° |
| 2026-05-03 21:42 | 45.33319 | 11.23502 | 35108 ft | 463 kts | 168° |
| 2026-05-03 21:43 | 45.27098 | 11.25922 | 35109 ft | 465 kts | 168° |
| 2026-05-03 21:43 | 45.20862 | 11.28343 | 35105 ft | 466 kts | 168° |
| 2026-05-03 21:44 | 45.14609 | 11.30765 | 35123 ft | 467 kts | 168° |
| 2026-05-03 21:44 | 45.08337 | 11.33189 | 35126 ft | 468 kts | 168° |
| 2026-05-03 21:45 | 45.02056 | 11.35611 | 35136 ft | 468 kts | 168° |
| 2026-05-03 21:45 | 44.95886 | 11.37986 | 35140 ft | 468 kts | 168° |
| 2026-05-03 21:46 | 44.89599 | 11.40399 | 35141 ft | 467 kts | 168° |
| 2026-05-03 21:46 | 44.83335 | 11.42799 | 35137 ft | 467 kts | 169° |
| 2026-05-03 21:47 | 44.77064 | 11.45194 | 35105 ft | 467 kts | 168° |
| 2026-05-03 21:47 | 44.70801 | 11.47582 | 35112 ft | 467 kts | 168° |
| 2026-05-03 21:48 | 44.64522 | 11.49970 | 35108 ft | 468 kts | 168° |
| 2026-05-03 21:48 | 44.58239 | 11.52355 | 35101 ft | 468 kts | 168° |
| 2026-05-03 21:49 | 44.52050 | 11.54699 | 35104 ft | 468 kts | 168° |
| 2026-05-03 21:49 | 44.45663 | 11.57113 | 35119 ft | 468 kts | 168° |
| 2026-05-03 21:50 | 44.39377 | 11.59483 | 35127 ft | 468 kts | 168° |
| 2026-05-03 21:50 | 44.33090 | 11.61848 | 35146 ft | 468 kts | 168° |
| 2026-05-03 21:51 | 44.26810 | 11.64205 | 35147 ft | 467 kts | 168° |
| 2026-05-03 21:51 | 44.20643 | 11.66515 | 35156 ft | 467 kts | 168° |
| 2026-05-03 21:52 | 44.14411 | 11.68843 | 35133 ft | 467 kts | 168° |
| 2026-05-03 21:52 | 44.08090 | 11.71200 | 35136 ft | 468 kts | 168° |
| 2026-05-03 21:53 | 44.01839 | 11.73526 | 35155 ft | 469 kts | 168° |
| 2026-05-03 21:53 | 43.95528 | 11.75869 | 35146 ft | 471 kts | 168° |
| 2026-05-03 21:54 | 43.89184 | 11.78219 | 35145 ft | 472 kts | 168° |
| 2026-05-03 21:54 | 43.82839 | 11.80566 | 35148 ft | 473 kts | 168° |
| 2026-05-03 21:55 | 43.76480 | 11.82903 | 35155 ft | 472 kts | 169° |
| 2026-05-03 21:55 | 43.70105 | 11.84990 | 35155 ft | 472 kts | 171° |
| 2026-05-03 21:56 | 43.63712 | 11.86975 | 35175 ft | 471 kts | 171° |
| 2026-05-03 21:56 | 43.57286 | 11.88986 | 34548 ft | 478 kts | 170° |
| 2026-05-03 21:57 | 43.54053 | 11.90008 | 33864 ft | 476 kts | 170° |
| 2026-05-03 21:57 | 43.50828 | 11.91033 | 33131 ft | 476 kts | 170° |
| 2026-05-03 21:57 | 43.47612 | 11.92055 | 32400 ft | 475 kts | 169° |
| 2026-05-03 21:57 | 43.44390 | 11.93079 | 31648 ft | 476 kts | 169° |
| 2026-05-03 21:58 | 43.41165 | 11.94102 | 30892 ft | 476 kts | 169° |
| 2026-05-03 21:58 | 43.37937 | 11.95124 | 30074 ft | 478 kts | 169° |
| 2026-05-03 21:58 | 43.34695 | 11.96148 | 29139 ft | 478 kts | 169° |
| 2026-05-03 21:58 | 43.31493 | 11.97160 | 28268 ft | 478 kts | 169° |
| 2026-05-03 21:59 | 43.28250 | 11.98183 | 27342 ft | 478 kts | 169° |
| 2026-05-03 21:59 | 43.25019 | 11.99201 | 26594 ft | 474 kts | 169° |
| 2026-05-03 21:59 | 43.21808 | 12.00213 | 25955 ft | 476 kts | 169° |
| 2026-05-03 21:59 | 43.18586 | 12.01225 | 25278 ft | 473 kts | 169° |
| 2026-05-03 22:00 | 43.15395 | 12.02228 | 24623 ft | 468 kts | 169° |
| 2026-05-03 22:00 | 43.12239 | 12.03219 | 23960 ft | 464 kts | 169° |
| 2026-05-03 22:00 | 43.09112 | 12.04199 | 23207 ft | 460 kts | 169° |
| 2026-05-03 22:00 | 43.06015 | 12.05169 | 22480 ft | 454 kts | 169° |
| 2026-05-03 22:01 | 43.02962 | 12.06123 | 21898 ft | 447 kts | 168° |
| 2026-05-03 22:01 | 42.99947 | 12.07066 | 21186 ft | 442 kts | 168° |
| 2026-05-03 22:01 | 42.96962 | 12.07997 | 20499 ft | 438 kts | 168° |
| 2026-05-03 22:01 | 42.94017 | 12.08915 | 19901 ft | 432 kts | 168° |
| 2026-05-03 22:02 | 42.91117 | 12.09818 | 19314 ft | 426 kts | 168° |
| 2026-05-03 22:02 | 42.88261 | 12.10707 | 18649 ft | 416 kts | 168° |
| 2026-05-03 22:02 | 42.85463 | 12.11577 | 17884 ft | 408 kts | 168° |
| 2026-05-03 22:02 | 42.82754 | 12.12419 | 17576 ft | 390 kts | 168° |
| 2026-05-03 22:03 | 42.80187 | 12.13216 | 17348 ft | 371 kts | 168° |
| 2026-05-03 22:03 | 42.77700 | 12.13987 | 16955 ft | 360 kts | 168° |
| 2026-05-03 22:03 | 42.75311 | 12.14727 | 16767 ft | 345 kts | 168° |
| 2026-05-03 22:03 | 42.73020 | 12.15436 | 16499 ft | 333 kts | 168° |
| 2026-05-03 22:04 | 42.70801 | 12.16116 | 16239 ft | 323 kts | 170° |
| 2026-05-03 22:04 | 42.68605 | 12.16211 | 15906 ft | 313 kts | 189° |
| 2026-05-03 22:04 | 42.66484 | 12.15707 | 15519 ft | 309 kts | 191° |
| 2026-05-03 22:04 | 42.64379 | 12.15178 | 15038 ft | 308 kts | 191° |
| 2026-05-03 22:05 | 42.62272 | 12.14653 | 14594 ft | 307 kts | 191° |
| 2026-05-03 22:05 | 42.60180 | 12.14142 | 14171 ft | 305 kts | 190° |
| 2026-05-03 22:05 | 42.58097 | 12.13640 | 13719 ft | 303 kts | 190° |
| 2026-05-03 22:05 | 42.56028 | 12.13147 | 13218 ft | 302 kts | 190° |
| 2026-05-03 22:06 | 42.53970 | 12.12661 | 12781 ft | 299 kts | 190° |
| 2026-05-03 22:06 | 42.51928 | 12.12180 | 12338 ft | 297 kts | 190° |
| 2026-05-03 22:06 | 42.49920 | 12.11709 | 11889 ft | 296 kts | 190° |
| 2026-05-03 22:06 | 42.47884 | 12.11232 | 11555 ft | 290 kts | 190° |
| 2026-05-03 22:07 | 42.45939 | 12.10776 | 11403 ft | 279 kts | 190° |
| 2026-05-03 22:07 | 42.44053 | 12.10336 | 11162 ft | 272 kts | 190° |
| 2026-05-03 22:07 | 42.42218 | 12.09907 | 10938 ft | 264 kts | 190° |
| 2026-05-03 22:07 | 42.40442 | 12.09492 | 10780 ft | 255 kts | 190° |
| 2026-05-03 22:08 | 42.38736 | 12.09233 | 10563 ft | 248 kts | 174° |
| 2026-05-03 22:08 | 42.37070 | 12.09836 | 10297 ft | 244 kts | 162° |
| 2026-05-03 22:08 | 42.35458 | 12.10544 | 9962 ft | 243 kts | 162° |
| 2026-05-03 22:08 | 42.33872 | 12.11226 | 9641 ft | 241 kts | 162° |
| 2026-05-03 22:09 | 42.32286 | 12.11903 | 9356 ft | 238 kts | 162° |
| 2026-05-03 22:09 | 42.30711 | 12.12574 | 9036 ft | 236 kts | 162° |
| 2026-05-03 22:09 | 42.29157 | 12.13234 | 8851 ft | 227 kts | 162° |
| 2026-05-03 22:10 | 42.26290 | 12.14449 | 8397 ft | 211 kts | 162° |
| 2026-05-03 22:10 | 42.24898 | 12.15038 | 8037 ft | 209 kts | 163° |
| 2026-05-03 22:10 | 42.23517 | 12.15622 | 7693 ft | 207 kts | 163° |
| 2026-05-03 22:10 | 42.22148 | 12.16201 | 7352 ft | 205 kts | 163° |
| 2026-05-03 22:11 | 42.20797 | 12.16773 | 7012 ft | 203 kts | 163° |
| 2026-05-03 22:11 | 42.19459 | 12.17338 | 6678 ft | 201 kts | 163° |
| 2026-05-03 22:11 | 42.18132 | 12.17899 | 6365 ft | 199 kts | 163° |
| 2026-05-03 22:11 | 42.16827 | 12.18450 | 6077 ft | 194 kts | 163° |
| 2026-05-03 22:12 | 42.15544 | 12.18989 | 5729 ft | 193 kts | 164° |
| 2026-05-03 22:12 | 42.14221 | 12.19045 | 5405 ft | 193 kts | 194° |
| 2026-05-03 22:12 | 42.12927 | 12.18600 | 5141 ft | 192 kts | 192° |
| 2026-05-03 22:12 | 42.11625 | 12.18207 | 4838 ft | 192 kts | 192° |
| 2026-05-03 22:13 | 42.10323 | 12.17817 | 4519 ft | 192 kts | 192° |
| 2026-05-03 22:13 | 42.09019 | 12.17426 | 4203 ft | 192 kts | 193° |
| 2026-05-03 22:13 | 42.07717 | 12.17036 | 3911 ft | 191 kts | 193° |
| 2026-05-03 22:13 | 42.06445 | 12.16971 | 3787 ft | 181 kts | 164° |
| 2026-05-03 22:14 | 42.05286 | 12.17512 | 3646 ft | 169 kts | 163° |
| 2026-05-03 22:14 | 42.04559 | 12.17817 | 3462 ft | 166 kts | 164° |
| 2026-05-03 22:14 | 42.03448 | 12.18273 | 3121 ft | 168 kts | 164° |
| 2026-05-03 22:14 | 42.02331 | 12.18736 | 3106 ft | 169 kts | 164° |
| 2026-05-03 22:15 | 42.01212 | 12.19203 | 3002 ft | 168 kts | 164° |
| 2026-05-03 22:15 | 42.00126 | 12.19658 | 3018 ft | 161 kts | 164° |
| 2026-05-03 22:15 | 41.99025 | 12.20117 | 2961 ft | 167 kts | 164° |
| 2026-05-03 22:15 | 41.97903 | 12.20586 | 2768 ft | 170 kts | 164° |
| 2026-05-03 22:16 | 41.96793 | 12.21051 | 2534 ft | 164 kts | 164° |
| 2026-05-03 22:16 | 41.95731 | 12.21495 | 2332 ft | 157 kts | 165° |
| 2026-05-03 22:16 | 41.94697 | 12.21926 | 2057 ft | 156 kts | 166° |
| 2026-05-03 22:16 | 41.93686 | 12.22351 | 1894 ft | 152 kts | 165° |
| 2026-05-03 22:17 | 41.92665 | 12.22778 | 1708 ft | 154 kts | 165° |
| 2026-05-03 22:17 | 41.91635 | 12.23210 | 1486 ft | 157 kts | 165° |
| 2026-05-03 22:17 | 41.90609 | 12.23640 | 1292 ft | 154 kts | 165° |
| 2026-05-03 22:17 | 41.89586 | 12.24066 | 1065 ft | 153 kts | 164° |
| 2026-05-03 22:18 | 41.88576 | 12.24491 | 867 ft | 151 kts | 164° |
| 2026-05-03 22:18 | 41.87565 | 12.24909 | 667 ft | 153 kts | 163° |
| 2026-05-03 22:18 | 41.86551 | 12.25335 | 468 ft | 152 kts | 163° |
| 2026-05-03 22:18 | 41.85548 | 12.25756 | 264 ft | 151 kts | 163° |
| 2026-05-03 22:19 | 41.84548 | 12.26173 | 69 ft | 151 kts | 163° |
| 2026-05-03 22:19 | 41.83589 | 12.26573 | 15 ft | 131 kts | 161° |
| 2026-05-03 22:19 | 41.82864 | 12.26877 | 12 ft | 87 kts | 163° |
| 2026-05-03 22:19 | 41.82422 | 12.27061 | 10 ft | 45 kts | 163° |
| 2026-05-03 22:20 | 41.82130 | 12.27141 | 9 ft | 42 kts | 178° |
| 2026-05-03 22:20 | 41.81859 | 12.27079 | 10 ft | 39 kts | 193° |
| 2026-05-03 22:20 | 41.81622 | 12.27073 | 13 ft | 33 kts | 163° |
| 2026-05-03 22:20 | 41.81401 | 12.27165 | 11 ft | 33 kts | 162° |
| 2026-05-03 22:21 | 41.81185 | 12.27255 | 11 ft | 32 kts | 163° |
| 2026-05-03 22:21 | 41.80971 | 12.27343 | 11 ft | 32 kts | 168° |
| 2026-05-03 22:21 | 41.80751 | 12.27315 | 12 ft | 32 kts | 190° |
| 2026-05-03 22:21 | 41.80624 | 12.27109 | 12 ft | 31 kts | 250° |
| 2026-05-03 22:22 | 41.80547 | 12.26829 | 12 ft | 31 kts | 250° |
| 2026-05-03 22:22 | 41.80473 | 12.26562 | 17 ft | 30 kts | 250° |
| 2026-05-03 22:22 | 41.80400 | 12.26296 | 16 ft | 30 kts | 250° |
| 2026-05-03 22:22 | 41.80288 | 12.26079 | 13 ft | 28 kts | 205° |
| 2026-05-03 22:23 | 41.80117 | 12.25973 | 14 ft | 27 kts | 205° |
| 2026-05-03 22:23 | 41.79955 | 12.25873 | 13 ft | 25 kts | 205° |
| 2026-05-03 22:23 | 41.79841 | 12.25834 | 13 ft | 10 kts | 175° |
| 2026-05-03 22:23 | 41.79770 | 12.25802 | 14 ft | 12 kts | 206° |
| 2026-05-03 22:24 | 41.79696 | 12.25769 | 13 ft | 9 kts | 160° |
| 2026-05-03 22:24 | 41.79673 | 12.25808 | 13 ft | 2 kts | 116° |
| 2026-05-03 22:24 | 41.79670 | 12.25815 | 13 ft | 0 kts | 116° |